createdAt,value
2022-11-24T00:00:29.796Z,94.40
2022-11-24T00:02:56.584Z,94.46
2022-11-24T00:05:23.676Z,94.34
2022-11-24T00:07:50.225Z,94.62
2022-11-24T00:10:17.122Z,94.81
2022-11-24T00:12:43.594Z,94.75
2022-11-24T00:15:10.336Z,94.89
2022-11-24T00:17:37.036Z,95.09
2022-11-24T00:20:03.844Z,95.18
2022-11-24T00:22:30.893Z,95.11
2022-11-24T00:24:57.366Z,95.07
2022-11-24T00:27:23.864Z,94.71
2022-11-24T00:29:50.582Z,94.57
2022-11-24T00:32:17.028Z,94.51
2022-11-24T00:34:43.475Z,94.54
2022-11-24T00:37:10.061Z,94.70
2022-11-24T00:39:36.570Z,94.48
2022-11-24T00:42:03.091Z,94.41
2022-11-24T00:44:30.010Z,94.34
2022-11-24T00:46:56.600Z,94.11
2022-11-24T00:49:23.274Z,94.41
2022-11-24T00:51:49.803Z,94.15
2022-11-24T00:54:16.437Z,94.70
2022-11-24T00:56:42.987Z,94.62
2022-11-24T01:00:36.642Z,94.55
2022-11-24T01:03:03.157Z,94.73
2022-11-24T01:05:29.846Z,94.74
2022-11-24T01:07:56.515Z,94.56
2022-11-24T01:10:23.044Z,94.46
2022-11-24T01:12:50.271Z,94.48
2022-11-24T01:15:17.142Z,94.75
2022-11-24T01:17:43.682Z,94.87
2022-11-24T01:20:10.637Z,95.02
2022-11-24T01:22:39.046Z,95.00
2022-11-24T01:25:06.834Z,94.91
2022-11-24T01:27:33.418Z,95.07
2022-11-24T01:30:07.353Z,95.23
2022-11-24T01:32:36.393Z,95.31
2022-11-24T01:35:06.865Z,95.16
2022-11-24T01:37:33.513Z,95.10
2022-11-24T01:40:00.544Z,95.08
2022-11-24T01:42:36.788Z,95.02
2022-11-24T01:45:41.439Z,94.92
2022-11-24T01:48:15.823Z,94.83
2022-11-24T01:50:43.570Z,94.68
2022-11-24T01:53:12.559Z,94.52
2022-11-24T01:55:40.151Z,94.34
2022-11-24T01:58:13.739Z,94.19
2022-11-24T02:00:44.317Z,93.75
2022-11-24T02:03:15.790Z,93.34
2022-11-24T02:05:49.233Z,93.16
2022-11-24T02:08:47.265Z,92.72
2022-11-24T02:11:13.812Z,92.65
2022-11-24T02:13:42.124Z,92.32
2022-11-24T02:16:11.441Z,91.93
2022-11-24T02:18:39.753Z,91.88
2022-11-24T02:21:07.247Z,91.75
2022-11-24T02:23:49.404Z,91.78
2022-11-24T02:26:41.645Z,91.79
2022-11-24T02:29:10.460Z,91.64
2022-11-24T02:31:38.775Z,91.61
2022-11-24T02:34:05.341Z,91.58
2022-11-24T02:36:31.884Z,91.40
2022-11-24T02:38:58.376Z,91.42
2022-11-24T02:41:27.225Z,91.19
2022-11-24T02:43:58.528Z,91.22
2022-11-24T02:46:25.102Z,91.05
2022-11-24T02:48:53.870Z,91.08
2022-11-24T02:51:20.356Z,91.11
2022-11-24T02:53:46.842Z,91.13
2022-11-24T02:56:13.353Z,91.17
2022-11-24T02:58:39.996Z,91.18
2022-11-24T03:01:06.771Z,91.12
2022-11-24T03:03:33.827Z,91.13
2022-11-24T03:06:00.489Z,91.12
2022-11-24T03:08:27.340Z,91.09
2022-11-24T03:10:54.595Z,91.04
2022-11-24T03:13:21.086Z,90.94
2022-11-24T03:15:47.630Z,91.13
2022-11-24T03:18:14.139Z,90.97
2022-11-24T03:20:40.652Z,91.02
2022-11-24T03:23:07.197Z,91.05
2022-11-24T03:25:33.721Z,91.04
2022-11-24T03:28:00.233Z,91.02
2022-11-24T03:30:27.221Z,91.04
2022-11-24T03:32:54.170Z,90.89
2022-11-24T03:35:21.964Z,91.06
2022-11-24T03:37:49.078Z,91.17
2022-11-24T03:40:16.116Z,91.13
2022-11-24T03:42:42.659Z,91.00
2022-11-24T03:45:37.891Z,91.12
2022-11-24T03:47:55.923Z,91.12
2022-11-24T03:50:22.379Z,90.97
2022-11-24T03:52:48.890Z,91.00
2022-11-24T03:55:15.450Z,91.07
2022-11-24T03:57:41.941Z,91.00
2022-11-24T04:00:09.471Z,91.22
2022-11-24T04:02:35.937Z,91.05
2022-11-24T04:05:02.768Z,90.88
2022-11-24T04:07:29.330Z,90.75
2022-11-24T04:09:55.841Z,90.55
2022-11-24T04:12:40.974Z,90.51
2022-11-24T04:15:07.906Z,90.45
2022-11-24T04:17:34.569Z,90.43
2022-11-24T04:20:01.070Z,90.28
2022-11-24T04:22:28.085Z,90.14
2022-11-24T04:24:54.548Z,89.93
2022-11-24T04:27:21.067Z,89.94
2022-11-24T04:29:47.534Z,89.94
2022-11-24T04:32:14.090Z,89.81
2022-11-24T04:34:40.584Z,89.81
2022-11-24T04:37:07.105Z,89.49
2022-11-24T04:39:33.852Z,89.41
2022-11-24T04:42:00.477Z,89.57
2022-11-24T04:44:27.129Z,89.53
2022-11-24T04:46:53.697Z,89.52
2022-11-24T04:49:20.338Z,89.69
2022-11-24T04:51:47.293Z,89.58
2022-11-24T04:54:14.707Z,89.60
2022-11-24T04:56:42.109Z,89.71
2022-11-24T04:59:12.286Z,89.73
2022-11-24T05:01:39.041Z,89.84
2022-11-24T05:04:05.590Z,89.88
2022-11-24T05:06:33.307Z,90.00
2022-11-24T05:09:00.573Z,90.04
2022-11-24T05:11:27.061Z,89.76
2022-11-24T05:13:53.823Z,89.70
2022-11-24T05:16:20.497Z,89.64
2022-11-24T05:18:47.147Z,89.83
2022-11-24T05:21:13.872Z,89.74
2022-11-24T05:23:40.344Z,89.55
2022-11-24T05:26:06.972Z,89.53
2022-11-24T05:28:33.911Z,89.33
2022-11-24T05:31:02.713Z,89.35
2022-11-24T05:33:30.254Z,89.63
2022-11-24T05:36:02.171Z,89.69
2022-11-24T05:38:29.977Z,89.71
2022-11-24T05:41:04.615Z,89.66
2022-11-24T05:43:31.576Z,89.63
2022-11-24T05:46:01.492Z,89.60
2022-11-24T05:48:28.231Z,89.63
2022-11-24T05:50:58.553Z,90.12
2022-11-24T05:53:26.884Z,90.17
2022-11-24T05:55:53.702Z,88.71
2022-11-24T05:58:20.315Z,88.52
2022-11-24T06:00:47.684Z,87.67
2022-11-24T06:03:14.555Z,86.51
2022-11-24T06:05:46.794Z,86.48
2022-11-24T06:08:13.946Z,85.28
2022-11-24T06:10:40.427Z,84.40
2022-11-24T06:13:07.819Z,84.62
2022-11-24T06:15:35.062Z,84.89
2022-11-24T06:18:01.550Z,83.82
2022-11-24T06:20:32.501Z,84.29
2022-11-24T06:23:00.028Z,84.35
2022-11-24T06:25:26.863Z,84.30
2022-11-24T06:27:53.822Z,84.29
2022-11-24T06:30:20.437Z,84.46
2022-11-24T06:32:49.676Z,84.68
2022-11-24T06:35:17.268Z,84.84
2022-11-24T06:37:43.894Z,84.64
2022-11-24T06:40:10.689Z,84.55
2022-11-24T06:42:37.879Z,84.97
2022-11-24T06:45:08.740Z,85.03
2022-11-24T06:47:36.195Z,84.13
2022-11-24T06:50:02.862Z,83.33
2022-11-24T06:52:29.882Z,83.92
2022-11-24T06:54:57.225Z,84.21
2022-11-24T06:57:23.786Z,84.15
2022-11-24T06:59:50.442Z,84.45
2022-11-24T07:02:17.020Z,84.52
2022-11-24T07:04:43.638Z,85.07
2022-11-24T07:07:10.615Z,84.96
2022-11-24T07:09:37.138Z,85.06
2022-11-24T07:12:04.827Z,84.67
2022-11-24T07:14:32.125Z,85.16
2022-11-24T07:16:58.855Z,85.18
2022-11-24T07:19:25.514Z,85.38
2022-11-24T07:21:52.174Z,84.95
2022-11-24T07:24:18.830Z,85.22
2022-11-24T07:26:45.507Z,83.70
2022-11-24T07:32:36.181Z,83.37
2022-11-24T07:35:02.636Z,83.46
2022-11-24T07:37:31.534Z,83.46
2022-11-24T07:39:58.687Z,83.07
2022-11-24T07:42:25.287Z,83.33
2022-11-24T07:44:51.899Z,82.65
2022-11-24T07:47:18.441Z,82.91
2022-11-24T07:49:45.417Z,83.07
2022-11-24T07:52:11.887Z,82.99
2022-11-24T07:54:38.493Z,82.49
2022-11-24T07:57:04.939Z,82.70
2022-11-24T07:59:31.695Z,82.21
2022-11-24T08:01:58.305Z,82.79
2022-11-24T08:04:24.938Z,82.58
2022-11-24T08:06:51.495Z,82.37
2022-11-24T08:09:17.960Z,82.53
2022-11-24T08:11:44.566Z,82.12
2022-11-24T08:14:11.053Z,81.58
2022-11-24T08:16:38.819Z,81.96
2022-11-24T08:19:05.381Z,81.34
2022-11-24T08:21:32.545Z,81.53
2022-11-24T08:23:59.151Z,81.14
2022-11-24T08:26:25.881Z,81.38
2022-11-24T08:28:57.587Z,81.31
2022-11-24T08:31:27.269Z,81.51
2022-11-24T08:33:55.773Z,81.65
2022-11-24T08:36:22.226Z,81.15
2022-11-24T08:38:49.819Z,81.60
2022-11-24T08:41:16.971Z,81.33
2022-11-24T08:43:43.580Z,81.49
2022-11-24T08:46:13.241Z,81.39
2022-11-24T08:48:40.511Z,81.38
2022-11-24T08:51:12.285Z,81.36
2022-11-24T08:53:39.570Z,81.18
2022-11-24T08:56:06.988Z,81.03
2022-11-24T08:58:34.310Z,81.24
2022-11-24T09:01:06.141Z,81.31
2022-11-24T09:03:32.949Z,81.36
2022-11-24T09:05:59.381Z,81.43
2022-11-24T09:08:26.029Z,81.24
2022-11-24T09:10:52.584Z,81.19
2022-11-24T09:13:19.156Z,81.19
2022-11-24T09:15:46.136Z,81.01
2022-11-24T09:18:12.585Z,81.05
2022-11-24T09:20:39.018Z,80.74
2022-11-24T09:23:05.519Z,80.93
2022-11-24T09:25:32.066Z,80.75
2022-11-24T09:27:59.911Z,79.69
2022-11-24T09:30:26.733Z,79.38
2022-11-24T09:32:56.173Z,79.06
2022-11-24T09:35:23.213Z,79.23
2022-11-24T09:37:49.711Z,79.22
2022-11-24T09:40:17.380Z,79.45
2022-11-24T09:43:15.447Z,79.09
2022-11-24T09:46:06.053Z,79.25
2022-11-24T09:48:40.831Z,79.08
2022-11-24T09:51:11.621Z,79.02
2022-11-24T09:53:48.592Z,78.94
2022-11-24T09:56:22.436Z,78.55
2022-11-24T09:58:59.125Z,76.93
2022-11-24T10:01:35.712Z,76.13
2022-11-24T10:04:06.318Z,76.29
2022-11-24T10:06:44.633Z,76.07
2022-11-24T10:09:37.705Z,74.64
2022-11-24T10:12:27.603Z,72.96
2022-11-24T10:15:24.591Z,72.80
2022-11-24T10:18:28.003Z,73.79
2022-11-24T10:21:16.741Z,73.02
2022-11-24T10:23:46.122Z,71.48
2022-11-24T10:26:40.257Z,71.39
2022-11-24T10:29:13.823Z,70.70
2022-11-24T10:31:43.326Z,70.08
2022-11-24T10:34:17.715Z,70.98
2022-11-24T10:36:50.807Z,71.90
2022-11-24T10:39:23.771Z,70.19
2022-11-24T10:42:07.540Z,69.02
2022-11-24T10:44:34.113Z,69.88
2022-11-24T10:47:00.603Z,68.76
2022-11-24T10:49:32.378Z,68.08
2022-11-24T10:52:10.120Z,69.12
2022-11-24T10:54:37.029Z,69.24
2022-11-24T10:57:03.749Z,67.40
2022-11-24T10:59:38.003Z,67.80
2022-11-24T11:02:30.033Z,67.52
2022-11-24T11:04:56.781Z,67.80
2022-11-24T11:07:26.265Z,69.32
2022-11-24T11:10:23.381Z,68.34
2022-11-24T11:12:50.064Z,68.77
2022-11-24T11:15:24.398Z,67.33
2022-11-24T11:17:54.509Z,66.69
2022-11-24T11:20:39.289Z,67.32
2022-11-24T11:23:21.403Z,68.11
2022-11-24T11:25:48.581Z,67.16
2022-11-24T11:28:18.712Z,68.08
2022-11-24T11:34:35.560Z,66.04
2022-11-24T11:37:04.181Z,65.31
2022-11-24T11:39:36.626Z,64.19
2022-11-24T11:43:00.019Z,64.29
2022-11-24T11:45:21.067Z,62.88
2022-11-24T11:47:56.812Z,64.83
2022-11-24T11:51:21.019Z,67.33
2022-11-24T11:53:47.223Z,67.57
2022-11-24T11:56:32.961Z,67.68
2022-11-24T11:59:33.433Z,65.49
2022-11-24T12:02:34.238Z,64.65
2022-11-24T12:05:09.093Z,65.83
2022-11-24T12:07:57.460Z,65.37
2022-11-24T12:10:46.118Z,63.80
2022-11-24T12:13:34.272Z,62.55
2022-11-24T12:16:16.848Z,64.27
2022-11-24T12:19:08.833Z,63.26
2022-11-24T12:21:38.277Z,64.26
2022-11-24T12:24:17.839Z,64.16
2022-11-24T12:26:51.003Z,65.24
2022-11-24T12:29:42.046Z,64.61
2022-11-24T12:32:47.077Z,65.34
2022-11-24T12:35:28.853Z,65.22
2022-11-24T12:38:30.681Z,66.77
2022-11-24T12:41:41.272Z,66.89
2022-11-24T12:44:30.827Z,63.98
2022-11-24T12:47:10.237Z,63.49
2022-11-24T12:50:03.811Z,66.05
2022-11-24T12:52:38.771Z,62.65
2022-11-24T12:55:12.518Z,62.80
2022-11-24T12:57:50.699Z,62.42
2022-11-24T13:00:22.291Z,61.71
2022-11-24T13:02:57.740Z,62.93
2022-11-24T13:05:35.102Z,61.72
2022-11-24T13:08:04.771Z,61.37
2022-11-24T13:10:57.124Z,60.01
2022-11-24T13:13:30.214Z,61.88
2022-11-24T13:18:52.560Z,61.33
2022-11-24T13:21:29.429Z,63.53
2022-11-24T13:24:21.412Z,64.62
2022-11-24T13:26:51.986Z,62.82
2022-11-24T13:29:39.522Z,63.11
2022-11-24T13:32:06.031Z,61.88
2022-11-24T13:34:42.853Z,61.61
2022-11-24T13:37:34.282Z,62.06
2022-11-24T13:40:31.168Z,61.22
2022-11-24T13:42:57.725Z,61.46
2022-11-24T13:45:39.943Z,60.32
2022-11-24T13:48:18.759Z,63.05
2022-11-24T13:50:51.460Z,61.80
2022-11-24T13:53:38.404Z,62.49
2022-11-24T13:56:14.397Z,61.44
2022-11-24T13:58:45.170Z,62.22
2022-11-24T14:01:17.448Z,61.36
2022-11-24T14:04:28.549Z,61.38
2022-11-24T14:06:53.175Z,60.21
2022-11-24T14:09:36.254Z,61.40
2022-11-24T14:12:23.129Z,60.57
2022-11-24T14:14:51.850Z,62.52
2022-11-24T14:17:28.641Z,63.14
2022-11-24T14:19:57.489Z,63.44
2022-11-24T14:22:43.517Z,64.13
2022-11-24T14:25:26.582Z,63.87
2022-11-24T14:27:53.565Z,63.91
2022-11-24T14:30:22.816Z,64.01
2022-11-24T14:32:59.497Z,63.97
2022-11-24T14:35:34.472Z,64.50
2022-11-24T14:38:05.915Z,65.19
2022-11-24T14:40:38.469Z,65.15
2022-11-24T14:43:20.422Z,65.57
2022-11-24T14:45:53.025Z,65.18
2022-11-24T14:48:25.341Z,65.69
2022-11-24T14:50:52.140Z,65.36
2022-11-24T14:53:26.279Z,65.46
2022-11-24T14:56:11.121Z,65.21
2022-11-24T14:58:42.057Z,64.84
2022-11-24T15:01:18.405Z,65.89
2022-11-24T15:03:45.404Z,66.50
2022-11-24T15:06:18.822Z,67.03
2022-11-24T15:08:48.242Z,67.42
2022-11-24T15:11:15.547Z,67.69
2022-11-24T15:13:54.395Z,67.94
2022-11-24T15:16:25.900Z,68.24
2022-11-24T15:19:01.025Z,68.60
2022-11-24T15:21:33.809Z,68.72
2022-11-24T15:24:17.832Z,69.00
2022-11-24T15:26:45.389Z,69.61
2022-11-24T15:29:13.062Z,69.94
2022-11-24T15:31:41.333Z,70.13
2022-11-24T15:34:13.622Z,70.54
2022-11-24T15:36:40.110Z,70.70
2022-11-24T15:39:06.597Z,70.80
2022-11-24T15:41:33.896Z,71.03
2022-11-24T15:44:00.546Z,71.25
2022-11-24T15:46:28.811Z,71.62
2022-11-24T15:48:55.831Z,71.75
2022-11-24T15:51:25.856Z,72.22
2022-11-24T15:53:58.862Z,72.39
2022-11-24T15:56:33.808Z,72.14
2022-11-24T15:59:01.689Z,72.24
2022-11-24T16:01:33.293Z,72.23
2022-11-24T16:04:01.232Z,72.45
2022-11-24T16:06:28.082Z,72.65
2022-11-24T16:08:54.789Z,73.08
2022-11-24T16:11:22.531Z,73.24
2022-11-24T16:13:53.065Z,73.40
2022-11-24T16:16:21.759Z,73.13
2022-11-24T16:18:48.402Z,72.97
2022-11-24T16:21:15.116Z,72.69
2022-11-24T16:23:41.911Z,72.14
2022-11-24T16:26:09.926Z,72.37
2022-11-24T16:28:36.439Z,72.11
2022-11-24T16:31:03.008Z,72.21
2022-11-24T16:33:30.278Z,72.14
2022-11-24T16:35:56.939Z,72.23
2022-11-24T16:38:23.585Z,72.05
2022-11-24T16:40:54.385Z,71.79
2022-11-24T16:43:20.988Z,71.96
2022-11-24T16:46:04.689Z,71.59
2022-11-24T16:48:36.018Z,71.78
2022-11-24T16:51:07.323Z,72.21
2022-11-24T16:53:34.094Z,72.04
2022-11-24T16:56:00.656Z,72.47
2022-11-24T16:58:27.204Z,72.56
2022-11-24T17:00:53.868Z,72.74
2022-11-24T17:03:20.512Z,72.30
2022-11-24T17:06:00.450Z,72.68
2022-11-24T17:08:26.986Z,73.23
2022-11-24T17:10:53.533Z,73.32
2022-11-24T17:13:20.006Z,74.16
2022-11-24T17:15:52.636Z,74.35
2022-11-24T17:18:25.206Z,74.67
2022-11-24T17:20:52.086Z,74.80
2022-11-24T17:23:19.721Z,75.54
2022-11-24T17:25:46.717Z,76.17
2022-11-24T17:28:13.199Z,76.39
2022-11-24T17:30:39.678Z,76.83
2022-11-24T17:33:06.337Z,77.16
2022-11-24T17:35:35.766Z,77.14
2022-11-24T17:38:02.485Z,77.34
2022-11-24T17:40:29.789Z,77.66
2022-11-24T17:43:02.692Z,78.07
2022-11-24T17:45:30.447Z,78.25
2022-11-24T17:48:00.279Z,78.68
2022-11-24T17:50:27.243Z,78.93
2022-11-24T17:52:54.295Z,79.01
2022-11-24T17:55:21.275Z,79.06
2022-11-24T17:57:47.783Z,79.22
2022-11-24T18:00:14.910Z,79.26
2022-11-24T18:02:41.408Z,79.72
2022-11-24T18:05:08.346Z,79.73
2022-11-24T18:07:38.010Z,80.00
2022-11-24T18:10:05.123Z,79.78
2022-11-24T18:12:32.594Z,79.96
2022-11-24T18:14:59.177Z,80.26
2022-11-24T18:17:26.017Z,80.53
2022-11-24T18:19:52.552Z,80.63
2022-11-24T18:22:36.588Z,80.91
2022-11-24T18:25:07.006Z,80.77
2022-11-24T18:27:33.465Z,80.60
2022-11-24T18:30:00.039Z,79.81
2022-11-24T18:32:26.761Z,80.08
2022-11-24T18:34:54.077Z,80.02
2022-11-24T18:37:20.601Z,80.30
2022-11-24T18:39:47.113Z,80.41
2022-11-24T18:42:13.706Z,80.58
2022-11-24T18:44:42.272Z,80.35
2022-11-24T18:47:09.034Z,80.66
2022-11-24T18:49:35.478Z,80.50
2022-11-24T18:52:02.169Z,80.28
2022-11-24T18:57:36.185Z,80.72
2022-11-24T19:00:03.345Z,80.35
2022-11-24T19:02:29.905Z,80.47
2022-11-24T19:04:56.536Z,80.60
2022-11-24T19:07:23.121Z,80.71
2022-11-24T19:09:49.780Z,80.74
2022-11-24T19:12:16.349Z,80.56
2022-11-24T19:14:42.818Z,80.21
2022-11-24T19:17:09.347Z,80.35
2022-11-24T19:19:35.966Z,80.80
2022-11-24T19:22:03.521Z,80.77
2022-11-24T19:24:30.298Z,80.89
2022-11-24T19:26:56.871Z,80.77
2022-11-24T19:29:23.366Z,80.64
2022-11-24T19:31:49.911Z,81.12
2022-11-24T19:34:16.532Z,81.13
2022-11-24T19:36:43.390Z,80.94
2022-11-24T19:39:15.327Z,81.13
2022-11-24T19:41:42.230Z,81.76
2022-11-24T19:44:11.697Z,81.45
2022-11-24T19:46:39.900Z,81.59
2022-11-24T19:49:08.305Z,81.29
2022-11-24T19:51:38.611Z,81.38
2022-11-24T19:54:07.303Z,81.48
2022-11-24T19:56:37.405Z,81.49
2022-11-24T19:59:06.465Z,81.82
2022-11-24T20:01:39.421Z,81.99
2022-11-24T20:04:09.041Z,82.20
2022-11-24T20:06:38.242Z,82.00
2022-11-24T20:09:07.812Z,82.16
2022-11-24T20:11:34.458Z,81.79
2022-11-24T20:14:01.203Z,81.64
2022-11-24T20:16:30.078Z,81.49
2022-11-24T20:19:00.998Z,81.06
2022-11-24T20:21:33.491Z,81.03
2022-11-24T20:24:06.554Z,81.15
2022-11-24T20:26:36.569Z,81.23
2022-11-24T20:29:04.561Z,81.34
2022-11-24T20:31:37.212Z,81.62
2022-11-24T20:34:05.193Z,81.82
2022-11-24T20:36:33.188Z,82.29
2022-11-24T20:39:01.270Z,82.18
2022-11-24T20:41:30.887Z,82.38
2022-11-24T20:44:00.928Z,82.58
2022-11-24T20:46:30.144Z,82.83
2022-11-24T20:48:57.249Z,82.82
2022-11-24T20:51:29.116Z,83.11
2022-11-24T20:53:58.998Z,83.19
2022-11-24T20:56:28.683Z,83.09
2022-11-24T20:58:55.552Z,83.16
2022-11-24T21:01:24.842Z,83.35
2022-11-24T21:03:53.693Z,83.46
2022-11-24T21:06:20.694Z,83.59
2022-11-24T21:08:47.311Z,83.80
2022-11-24T21:11:14.980Z,83.84
2022-11-24T21:13:44.955Z,84.23
2022-11-24T21:16:16.075Z,84.35
2022-11-24T21:18:44.666Z,84.57
2022-11-24T21:21:12.540Z,84.58
2022-11-24T21:23:39.221Z,84.73
2022-11-24T21:26:13.049Z,84.94
2022-11-24T21:28:44.368Z,84.86
2022-11-24T21:31:15.571Z,84.81
2022-11-24T21:33:44.912Z,84.88
2022-11-24T21:36:14.635Z,85.06
2022-11-24T21:38:42.760Z,84.83
2022-11-24T21:41:11.427Z,85.05
2022-11-24T21:43:47.701Z,84.99
2022-11-24T21:46:14.907Z,84.79
2022-11-24T21:48:42.669Z,85.04
2022-11-24T21:51:17.091Z,85.12
2022-11-24T21:53:45.818Z,85.18
2022-11-24T21:56:14.612Z,85.15
2022-11-24T21:58:49.308Z,85.21
2022-11-24T22:01:18.563Z,85.09
2022-11-24T22:03:46.094Z,85.11
2022-11-24T22:06:13.193Z,84.91
2022-11-24T22:08:40.896Z,84.79
2022-11-24T22:11:12.051Z,84.88
2022-11-24T22:13:39.286Z,84.55
2022-11-24T22:16:11.780Z,84.62
2022-11-24T22:18:41.088Z,84.58
2022-11-24T22:21:10.799Z,84.48
2022-11-24T22:23:37.558Z,84.45
2022-11-24T22:26:07.019Z,84.49
2022-11-24T22:28:35.427Z,84.55
2022-11-24T22:31:16.778Z,84.54
2022-11-24T22:33:44.404Z,84.78
2022-11-24T22:36:15.696Z,84.57
2022-11-24T22:38:43.238Z,84.48
2022-11-24T22:41:15.040Z,84.31
2022-11-24T22:43:43.881Z,83.97
2022-11-24T22:46:14.434Z,83.84
2022-11-24T22:48:41.921Z,83.76
2022-11-24T22:51:11.369Z,83.52
2022-11-24T22:53:38.655Z,83.43
2022-11-24T22:56:07.476Z,83.24
2022-11-24T22:58:34.152Z,83.07
2022-11-24T23:01:19.272Z,83.12
2022-11-24T23:03:46.166Z,82.80
2022-11-24T23:06:18.405Z,82.56
2022-11-24T23:08:45.164Z,82.35
2022-11-24T23:11:17.582Z,82.35
2022-11-24T23:13:44.643Z,82.16
2022-11-24T23:16:14.278Z,81.97
2022-11-24T23:18:41.168Z,81.80
2022-11-24T23:21:18.740Z,81.85
2022-11-24T23:23:46.575Z,81.89
2022-11-24T23:26:16.140Z,81.83
2022-11-24T23:28:43.514Z,81.73
2022-11-24T23:31:15.122Z,81.73
2022-11-24T23:33:42.193Z,81.79
2022-11-24T23:36:14.803Z,81.99
2022-11-24T23:38:41.961Z,81.92
2022-11-24T23:41:12.043Z,81.86
2022-11-24T23:43:44.221Z,81.89
2022-11-24T23:49:14.067Z,82.02
2022-11-24T23:51:44.573Z,82.26
2022-11-24T23:54:36.380Z,81.83
2022-11-24T23:57:08.903Z,82.10
